Time;durP1;ratioP1;P1;durP2;ratioP2;P2;SDS_P1;SDS_P2;PMS_P1;PMS_P2;Temp;Humidity;BMP_temperature;BMP_pressure;BME280_temperature;BME280_humidity;BME280_pressure;Samples;Min_cycle;Max_cycle;Signal;HPM_P1;HPM_P2
2021/11/04 00:00:42;;;;;;;45.40;19.77;;;7.60;98.00;;;;;;5033865;28;20038;-75
2021/11/04 00:03:08;;;;;;;56.23;20.53;;;7.60;98.00;;;;;;5032705;28;20037;-75
2021/11/04 00:05:35;;;;;;;45.40;20.57;;;7.70;98.10;;;;;;5032577;28;20036;-75
2021/11/04 00:08:03;;;;;;;67.63;20.20;;;7.60;98.30;;;;;;5033659;28;20116;-74
2021/11/04 00:10:30;;;;;;;57.43;19.70;;;7.60;98.30;;;;;;5032620;28;20030;-74
2021/11/04 00:12:56;;;;;;;67.80;22.03;;;7.60;98.10;;;;;;5032363;28;20462;-74
2021/11/04 00:15:22;;;;;;;69.03;21.40;;;7.60;98.10;;;;;;5033713;28;20037;-74
2021/11/04 00:17:49;;;;;;;62.87;20.30;;;7.70;98.10;;;;;;5032226;28;20026;-75
2021/11/04 00:20:17;;;;;;;53.27;19.97;;;7.60;98.10;;;;;;5032316;28;20032;-75
2021/11/04 00:22:44;;;;;;;61.13;20.07;;;7.70;98.20;;;;;;5032298;28;20052;-75
2021/11/04 00:25:10;;;;;;;51.77;20.17;;;7.70;98.10;;;;;;5032320;28;20036;-75
2021/11/04 00:27:36;;;;;;;57.00;23.47;;;7.70;98.10;;;;;;5031965;28;20041;-75
2021/11/04 00:30:07;;;;;;;47.70;21.00;;;7.60;98.10;;;;;;5033413;28;20033;-75
2021/11/04 00:32:33;;;;;;;41.00;19.97;;;7.60;98.10;;;;;;5033470;28;20044;-75
2021/11/04 00:34:59;;;;;;;55.43;19.90;;;7.60;98.10;;;;;;5033376;28;20470;-75
2021/11/04 00:37:25;;;;;;;61.90;21.40;;;7.70;98.10;;;;;;5032324;28;20064;-75
2021/11/04 00:39:51;;;;;;;64.57;23.13;;;7.60;98.10;;;;;;5033268;28;20109;-75
2021/11/04 00:42:17;;;;;;;61.03;22.90;;;7.50;98.10;;;;;;5032021;28;20541;-75
2021/11/04 00:44:42;;;;;;;64.87;22.77;;;7.50;98.10;;;;;;5033488;28;20080;-75
2021/11/04 00:47:08;;;;;;;77.10;22.50;;;7.50;98.20;;;;;;5078664;28;20075;-75
2021/11/04 00:49:33;;;;;;;70.67;22.90;;;7.50;98.20;;;;;;5065469;28;20056;-76
2021/11/04 00:51:59;;;;;;;61.90;22.47;;;7.50;98.20;;;;;;5064702;28;20168;-72
2021/11/04 00:54:25;;;;;;;59.40;22.10;;;7.50;98.20;;;;;;5065398;28;20030;-73
2021/11/04 00:56:50;;;;;;;72.17;22.93;;;7.40;98.20;;;;;;5033527;28;20040;-73
2021/11/04 00:59:16;;;;;;;77.17;23.27;;;7.40;98.20;;;;;;5033430;28;20036;-73
2021/11/04 01:01:42;;;;;;;73.43;22.67;;;7.50;98.20;;;;;;5033433;28;20100;-73
2021/11/04 01:04:07;;;;;;;55.57;20.33;;;7.50;98.20;;;;;;5033544;28;20037;-73
2021/11/04 01:06:33;;;;;;;77.73;22.40;;;7.40;98.20;;;;;;5048468;28;20492;-73
2021/11/04 01:08:59;;;;;;;91.23;23.33;;;7.50;98.30;;;;;;5033526;28;20099;-73
2021/11/04 01:11:24;;;;;;;83.53;23.23;;;7.40;98.20;;;;;;5033617;28;20362;-74
2021/11/04 01:13:51;;;;;;;101.13;25.57;;;7.40;98.20;;;;;;5033302;28;20481;-73
2021/11/04 01:16:17;;;;;;;85.80;25.53;;;7.40;98.30;;;;;;5031865;28;20033;-73
2021/11/04 01:18:43;;;;;;;89.53;24.67;;;7.30;98.20;;;;;;5048311;28;20026;-73
2021/11/04 01:21:10;;;;;;;85.50;26.23;;;7.30;98.30;;;;;;5033088;28;20043;-73
2021/11/04 01:23:36;;;;;;;79.23;24.20;;;7.30;98.50;;;;;;5065377;28;20042;-73
2021/11/04 01:26:02;;;;;;;75.90;24.60;;;7.30;98.30;;;;;;5033258;28;20096;-73
2021/11/04 01:28:28;;;;;;;82.07;23.00;;;7.30;98.30;;;;;;5032880;28;20363;-73
2021/11/04 01:30:54;;;;;;;60.63;23.20;;;7.20;98.30;;;;;;5065282;28;20037;-73
2021/11/04 01:33:20;;;;;;;58.80;23.90;;;7.20;98.30;;;;;;5033207;28;20084;-76
2021/11/04 01:35:46;;;;;;;67.47;23.33;;;7.10;98.30;;;;;;5033439;28;20458;-75
2021/11/04 01:38:11;;;;;;;82.77;23.10;;;7.10;98.30;;;;;;5065453;28;20454;-75
2021/11/04 01:40:37;;;;;;;69.93;23.20;;;7.10;98.30;;;;;;5048254;28;20045;-75
2021/11/04 01:43:04;;;;;;;66.30;22.83;;;7.20;98.30;;;;;;5033110;28;20424;-73
2021/11/04 01:45:30;;;;;;;81.03;23.20;;;7.20;98.40;;;;;;5048073;28;20370;-73
2021/11/04 01:47:56;;;;;;;70.30;24.47;;;7.10;98.40;;;;;;5064793;28;20033;-73
2021/11/04 01:50:24;;;;;;;78.60;27.77;;;7.20;98.40;;;;;;5064760;28;20029;-73
2021/11/04 01:52:50;;;;;;;67.10;26.17;;;7.20;98.50;;;;;;5033048;28;20029;-73
2021/11/04 01:55:21;;;;;;;52.13;25.47;;;7.20;98.50;;;;;;5032950;28;20347;-73
2021/11/04 01:57:47;;;;;;;56.33;24.70;;;7.20;98.60;;;;;;5032736;28;20041;-73
2021/11/04 02:00:16;;;;;;;84.63;26.87;;;7.20;98.60;;;;;;5032579;28;20061;-73
2021/11/04 02:03:23;;;;;;;53.03;25.53;;;7.30;98.60;;;;;;5032569;28;20100;-73
2021/11/04 02:06:08;;;;;;;52.63;24.33;;;7.20;98.60;;;;;;5048902;28;20030;-73
2021/11/04 02:08:56;;;;;;;56.70;24.33;;;7.20;98.60;;;;;;5034702;28;20041;-73
2021/11/04 02:11:42;;;;;;;53.93;25.30;;;7.30;98.70;;;;;;5036251;28;20029;-76
2021/11/04 02:14:14;;;;;;;51.93;24.40;;;7.30;98.70;;;;;;5036060;28;20109;-76
2021/11/04 02:16:42;;;;;;;44.50;22.17;;;7.30;98.70;;;;;;5036287;28;20108;-76
2021/11/04 02:19:16;;;;;;;47.53;22.77;;;7.30;98.80;;;;;;5035877;28;20494;-76
2021/11/04 02:21:54;;;;;;;44.63;22.43;;;7.40;98.80;;;;;;5035761;28;20481;-76
2021/11/04 02:24:24;;;;;;;50.03;22.40;;;7.40;98.80;;;;;;5036008;28;20535;-76
2021/11/04 02:26:51;;;;;;;54.33;24.90;;;7.40;98.80;;;;;;5034450;28;20470;-76
2021/11/04 02:29:18;;;;;;;48.27;25.37;;;7.50;98.80;;;;;;5035517;28;20432;-76
2021/11/04 02:31:46;;;;;;;49.30;23.80;;;7.40;98.80;;;;;;5035794;28;20075;-77
2021/11/04 02:34:13;;;;;;;55.73;25.23;;;7.40;98.70;;;;;;5067620;28;20579;-76
2021/11/04 02:36:42;;;;;;;58.07;25.77;;;7.40;98.60;;;;;;5067608;28;20068;-76
2021/11/04 02:39:08;;;;;;;62.57;25.20;;;7.40;98.60;;;;;;5034354;28;20044;-76
2021/11/04 02:41:34;;;;;;;67.03;25.73;;;7.40;98.60;;;;;;5036191;28;20033;-76
2021/11/04 02:44:01;;;;;;;61.30;26.97;;;7.40;98.60;;;;;;5035631;28;20042;-76
2021/11/04 02:46:28;;;;;;;57.57;28.40;;;7.30;98.60;;;;;;5036149;28;20033;-76
2021/11/04 02:48:54;;;;;;;56.27;28.30;;;7.30;98.70;;;;;;5035883;28;20417;-76
2021/11/04 02:51:21;;;;;;;60.33;30.00;;;7.30;98.70;;;;;;5035529;28;20036;-76
2021/11/04 02:53:47;;;;;;;63.00;26.67;;;7.40;99.10;;;;;;5050874;28;20080;-75
2021/11/04 02:56:13;;;;;;;61.33;28.03;;;7.40;98.80;;;;;;5035598;28;20025;-75
2021/11/04 02:58:39;;;;;;;60.53;28.30;;;7.30;98.80;;;;;;5035717;28;20033;-75
2021/11/04 03:01:05;;;;;;;59.97;28.10;;;7.30;98.90;;;;;;5035683;28;20029;-76
2021/11/04 03:03:30;;;;;;;65.03;28.10;;;7.40;98.90;;;;;;5078172;28;20044;-76
2021/11/04 03:05:57;;;;;;;73.47;29.47;;;7.40;98.90;;;;;;5033501;28;20037;-76
2021/11/04 03:08:25;;;;;;;79.70;29.77;;;7.40;98.90;;;;;;5033364;28;20030;-76
2021/11/04 03:10:51;;;;;;;74.60;31.50;;;7.40;98.90;;;;;;5033719;28;20064;-76
2021/11/04 03:13:17;;;;;;;69.73;29.63;;;7.40;98.90;;;;;;5034925;28;20057;-75
2021/11/04 03:15:46;;;;;;;65.87;30.00;;;7.40;98.90;;;;;;5034283;28;20045;-75
2021/11/04 03:18:13;;;;;;;59.90;28.10;;;7.40;98.90;;;;;;5034632;28;20030;-75
2021/11/04 03:20:39;;;;;;;67.97;31.53;;;7.40;99.00;;;;;;5033482;28;20474;-75
2021/11/04 03:23:06;;;;;;;69.03;30.47;;;7.40;99.10;;;;;;5033313;28;20470;-75
2021/11/04 03:25:33;;;;;;;82.50;32.40;;;7.50;99.10;;;;;;5034478;28;20522;-75
2021/11/04 03:28:01;;;;;;;70.33;32.27;;;7.50;99.10;;;;;;5016550;28;20176;-75
2021/11/04 03:30:29;;;;;;;70.40;32.40;;;7.50;99.10;;;;;;5034449;28;20059;-75
2021/11/04 03:32:58;;;;;;;72.40;33.50;;;7.50;99.00;;;;;;5034417;28;20026;-75
2021/11/04 03:35:27;;;;;;;79.73;32.90;;;7.60;99.10;;;;;;5033457;28;20021;-75
2021/11/04 03:37:55;;;;;;;84.53;35.53;;;7.50;99.00;;;;;;5034403;28;20029;-75
2021/11/04 03:40:21;;;;;;;70.03;32.47;;;7.50;99.00;;;;;;5034351;28;20386;-75
2021/11/04 03:42:49;;;;;;;92.97;33.73;;;7.60;99.30;;;;;;5034385;28;20581;-75
2021/11/04 03:45:15;;;;;;;86.10;32.57;;;7.50;99.00;;;;;;5034164;28;20040;-76
2021/11/04 03:47:43;;;;;;;102.30;33.73;;;7.50;99.00;;;;;;5033956;28;20030;-76
2021/11/04 03:50:10;;;;;;;68.93;31.57;;;7.50;99.00;;;;;;5034058;28;20034;-75
2021/11/04 03:52:42;;;;;;;74.67;32.77;;;7.50;98.90;;;;;;5032821;28;20026;-75
2021/11/04 03:55:10;;;;;;;65.63;29.87;;;7.50;98.90;;;;;;5034076;28;20076;-76
2021/11/04 03:57:39;;;;;;;61.77;31.30;;;7.40;99.00;;;;;;5033981;28;20026;-75
2021/11/04 04:00:07;;;;;;;60.03;30.70;;;7.40;99.00;;;;;;5032570;28;20050;-75
2021/11/04 04:02:34;;;;;;;62.77;30.87;;;7.50;99.00;;;;;;5033884;28;20022;-74
2021/11/04 04:04:59;;;;;;;61.43;30.27;;;7.50;99.00;;;;;;5033784;28;20033;-74
2021/11/04 04:07:26;;;;;;;62.27;31.30;;;7.50;99.10;;;;;;5033952;28;20037;-75
2021/11/04 04:09:52;;;;;;;55.03;30.07;;;7.50;99.00;;;;;;5033697;28;20029;-75
2021/11/04 04:12:18;;;;;;;54.47;27.97;;;7.60;99.10;;;;;;5033685;28;20026;-75
2021/11/04 04:14:43;;;;;;;58.23;28.53;;;7.60;99.00;;;;;;5032422;28;20036;-75
2021/11/04 04:17:09;;;;;;;51.97;28.80;;;7.60;99.00;;;;;;5034049;28;20025;-74
2021/11/04 04:19:35;;;;;;;49.90;27.23;;;7.50;98.90;;;;;;5033554;28;20034;-75
2021/11/04 04:22:00;;;;;;;48.20;27.63;;;7.50;98.90;;;;;;5032464;28;20389;-75
2021/11/04 04:24:26;;;;;;;51.40;27.60;;;7.50;98.90;;;;;;5033561;28;20125;-75
2021/11/04 04:26:52;;;;;;;49.20;26.77;;;7.50;98.90;;;;;;5032940;28;20056;-75
2021/11/04 04:29:17;;;;;;;48.30;26.33;;;7.50;99.00;;;;;;5032031;28;20079;-75
2021/11/04 04:31:44;;;;;;;47.97;27.50;;;7.50;99.00;;;;;;5033536;28;20378;-76
2021/11/04 04:34:10;;;;;;;49.93;27.27;;;7.50;99.00;;;;;;5032139;28;20025;-77
2021/11/04 04:36:36;;;;;;;46.73;26.40;;;7.50;98.90;;;;;;5033362;28;20025;-76
2021/11/04 04:39:02;;;;;;;45.40;25.33;;;7.50;98.80;;;;;;5033324;28;20033;-76
2021/11/04 04:41:28;;;;;;;48.80;25.93;;;7.50;98.80;;;;;;5032024;28;20300;-75
2021/11/04 04:43:54;;;;;;;47.53;25.93;;;7.40;98.80;;;;;;5031979;28;20084;-76
2021/11/04 04:46:21;;;;;;;48.70;25.77;;;7.40;99.10;;;;;;5032098;28;20045;-76
2021/11/04 04:48:47;;;;;;;52.63;29.07;;;7.40;98.80;;;;;;5033297;28;20470;-75
2021/11/04 04:51:13;;;;;;;52.43;27.50;;;7.40;98.80;;;;;;5033280;28;20029;-75
2021/11/04 04:53:39;;;;;;;53.03;28.13;;;7.40;98.80;;;;;;5015444;28;20021;-75
2021/11/04 04:56:05;;;;;;;53.83;27.23;;;7.40;98.80;;;;;;5033137;28;20440;-75
2021/11/04 04:58:31;;;;;;;55.47;28.37;;;7.40;98.80;;;;;;5033046;28;20017;-75
2021/11/04 05:00:56;;;;;;;53.87;29.07;;;7.40;99.10;;;;;;5033087;28;20101;-75
2021/11/04 05:03:22;;;;;;;57.60;28.60;;;7.40;98.90;;;;;;5033022;28;20036;-75
2021/11/04 05:05:48;;;;;;;52.53;28.63;;;7.40;98.90;;;;;;5031721;28;20025;-75
2021/11/04 05:08:14;;;;;;;48.43;27.13;;;7.40;98.90;;;;;;5031545;28;20382;-76
2021/11/04 05:10:40;;;;;;;53.27;29.03;;;7.30;98.90;;;;;;5031860;28;20032;-75
2021/11/04 05:13:05;;;;;;;48.27;25.97;;;7.40;98.90;;;;;;5032885;28;20065;-75
2021/11/04 05:15:31;;;;;;;47.97;26.23;;;7.40;98.90;;;;;;5015227;28;20033;-76
2021/11/04 05:17:57;;;;;;;48.13;26.27;;;7.30;98.90;;;;;;5033177;28;20052;-76
2021/11/04 05:20:23;;;;;;;46.23;26.53;;;7.40;99.00;;;;;;5031722;28;20565;-75
2021/11/04 05:22:48;;;;;;;44.27;27.13;;;7.30;98.90;;;;;;5032895;28;20064;-75
2021/11/04 05:25:14;;;;;;;48.70;26.67;;;7.30;99.00;;;;;;5032843;28;20841;-76
2021/11/04 05:27:47;;;;;;;45.97;27.53;;;7.30;99.00;;;;;;5031526;28;20041;-76
2021/11/04 05:30:14;;;;;;;45.77;26.20;;;7.20;99.00;;;;;;5016219;28;20080;-75
2021/11/04 05:32:39;;;;;;;44.43;25.17;;;7.20;99.00;;;;;;5031664;28;20033;-75
2021/11/04 05:35:05;;;;;;;43.50;25.93;;;7.20;99.00;;;;;;5032757;28;20037;-76
2021/11/04 05:37:31;;;;;;;41.23;25.27;;;7.20;99.00;;;;;;5032343;28;20117;-75
2021/11/04 05:39:57;;;;;;;42.40;24.63;;;7.10;99.20;;;;;;5035266;28;20061;-75
2021/11/04 05:42:23;;;;;;;41.13;23.87;;;7.20;99.00;;;;;;5035354;28;20470;-75
2021/11/04 05:44:50;;;;;;;40.03;24.47;;;7.20;99.00;;;;;;5036415;28;20501;-76
2021/11/04 05:47:16;;;;;;;34.37;21.03;;;7.20;99.10;;;;;;5035130;28;20025;-76
2021/11/04 05:49:42;;;;;;;38.57;23.93;;;7.20;99.10;;;;;;5036447;28;20029;-75
2021/11/04 05:52:08;;;;;;;43.00;23.83;;;7.20;99.00;;;;;;5036223;28;20048;-75
2021/11/04 05:54:34;;;;;;;53.67;24.43;;;7.20;99.10;;;;;;5040259;28;20102;-76
2021/11/04 05:57:03;;;;;;;41.50;23.53;;;7.20;99.00;;;;;;5053270;28;20033;-76
2021/11/04 05:59:29;;;;;;;43.67;24.43;;;7.20;99.00;;;;;;5055755;28;20032;-76
2021/11/04 06:01:55;;;;;;;43.70;23.73;;;7.20;99.00;;;;;;5053271;28;20158;-76
2021/11/04 06:04:21;;;;;;;60.47;23.77;;;7.10;99.00;;;;;;5037654;28;20111;-76
2021/11/04 06:06:47;;;;;;;54.23;24.47;;;7.10;99.00;;;;;;5045831;28;20543;-76
2021/11/04 06:09:13;;;;;;;57.10;24.77;;;7.10;99.30;;;;;;5055720;28;20036;-77
2021/11/04 06:11:38;;;;;;;76.10;26.53;;;7.00;99.00;;;;;;5051104;28;20393;-75
2021/11/04 06:14:05;;;;;;;70.10;25.40;;;7.00;99.00;;;;;;5043011;28;20028;-75
2021/11/04 06:16:31;;;;;;;85.63;27.37;;;7.00;99.10;;;;;;5054246;28;20029;-75
2021/11/04 06:18:57;;;;;;;53.00;27.40;;;7.00;99.10;;;;;;5052122;28;20029;-75
2021/11/04 06:21:23;;;;;;;72.70;25.40;;;7.10;99.10;;;;;;5051458;28;20052;-75
2021/11/04 06:23:49;;;;;;;68.97;24.77;;;7.00;99.10;;;;;;5037463;28;20057;-75
2021/11/04 06:26:15;;;;;;;90.47;25.90;;;7.00;99.10;;;;;;5034174;28;20490;-75
2021/11/04 06:28:41;;;;;;;68.00;25.40;;;7.00;99.10;;;;;;5045466;28;20049;-74
2021/11/04 06:31:06;;;;;;;77.10;26.30;;;7.10;99.20;;;;;;5053529;28;20358;-75
2021/11/04 06:33:32;;;;;;;82.17;25.80;;;7.00;99.20;;;;;;5051402;28;20032;-75
2021/11/04 06:35:58;;;;;;;56.37;23.10;;;7.00;99.20;;;;;;5052968;28;20100;-75
2021/11/04 06:38:24;;;;;;;93.77;24.90;;;7.10;99.30;;;;;;5049651;28;20592;-75
2021/11/04 06:40:50;;;;;;;60.70;25.73;;;7.10;99.20;;;;;;5050811;28;20036;-75
2021/11/04 06:43:16;;;;;;;71.77;24.27;;;7.20;99.20;;;;;;5051520;28;20033;-75
2021/11/04 06:45:51;;;;;;;80.70;23.50;;;7.10;99.20;;;;;;5048021;28;20029;-74
2021/11/04 06:48:23;;;;;;;79.87;23.80;;;7.00;99.10;;;;;;5053060;28;20044;-74
2021/11/04 06:50:50;;;;;;;76.23;25.10;;;7.10;99.10;;;;;;5050278;28;20512;-74
2021/11/04 06:53:21;;;;;;;68.60;23.90;;;7.00;99.10;;;;;;5054565;28;20023;-74
2021/11/04 06:55:50;;;;;;;65.63;21.73;;;7.10;99.10;;;;;;5045344;28;20056;-74
2021/11/04 06:58:19;;;;;;;61.77;22.53;;;7.00;99.20;;;;;;5047462;28;20053;-74
2021/11/04 07:00:47;;;;;;;32.90;21.80;;;7.00;99.20;;;;;;5049024;28;20477;-74
2021/11/04 07:03:22;;;;;;;44.83;21.10;;;7.00;99.20;;;;;;5053139;28;20416;-74
2021/11/04 07:05:47;;;;;;;71.97;20.93;;;7.00;99.20;;;;;;5054181;28;20020;-74
2021/11/04 07:08:22;;;;;;;43.23;17.83;;;7.10;99.10;;;;;;5053547;28;20078;-74
2021/11/04 07:10:48;;;;;;;48.90;17.33;;;7.00;99.10;;;;;;5034794;28;20025;-74
2021/11/04 07:13:15;;;;;;;53.50;18.07;;;7.00;99.10;;;;;;5050598;28;20028;-73
2021/11/04 07:15:42;;;;;;;41.03;17.63;;;7.00;99.10;;;;;;5051110;28;20029;-74
2021/11/04 07:18:09;;;;;;;61.10;17.43;;;7.00;99.10;;;;;;5053847;28;20504;-75
2021/11/04 07:20:37;;;;;;;59.40;17.60;;;7.00;99.10;;;;;;5045726;28;20033;-74
2021/11/04 07:23:07;;;;;;;45.23;16.00;;;7.00;99.00;;;;;;5050034;28;20021;-74
2021/11/04 07:25:34;;;;;;;38.93;16.50;;;7.00;99.10;;;;;;5054063;28;20124;-74
2021/11/04 07:28:07;;;;;;;53.67;17.57;;;7.00;99.20;;;;;;5047521;28;20053;-76
2021/11/04 07:30:34;;;;;;;56.67;15.05;;;7.00;99.20;;;;;;5052145;28;20025;-74
2021/11/04 07:33:04;;;;;;;49.67;17.00;;;7.10;99.20;;;;;;5052528;28;20436;-75
2021/11/04 07:35:35;;;;;;;59.03;18.70;;;7.10;99.20;;;;;;5048920;28;20017;-74
2021/11/04 07:38:04;;;;;;;49.27;17.87;;;7.00;99.20;;;;;;5052260;28;20461;-74
2021/11/04 07:40:30;;;;;;;57.47;17.37;;;7.20;99.40;;;;;;5053921;28;20048;-75
2021/11/04 07:42:56;;;;;;;39.63;18.77;;;7.10;99.30;;;;;;5052510;28;20029;-75
2021/11/04 07:45:23;;;;;;;50.00;18.13;;;7.20;99.30;;;;;;5053592;28;20518;-75
2021/11/04 07:47:49;;;;;;;33.10;17.70;;;7.20;99.30;;;;;;5054414;28;20021;-75
2021/11/04 07:50:19;;;;;;;48.53;19.30;;;7.20;99.30;;;;;;5054287;28;20108;-75
2021/11/04 07:52:45;;;;;;;33.63;18.47;;;7.20;99.30;;;;;;5053802;28;20112;-74
2021/11/04 07:55:12;;;;;;;50.40;19.87;;;7.30;99.30;;;;;;5036176;28;20032;-75
2021/11/04 07:57:39;;;;;;;39.87;19.27;;;7.30;99.20;;;;;;5054281;28;20116;-75
2021/11/04 08:00:10;;;;;;;43.80;19.40;;;7.30;99.30;;;;;;5054099;28;20150;-75
2021/11/04 08:02:37;;;;;;;58.00;19.30;;;7.30;99.30;;;;;;5053996;28;20029;-75
2021/11/04 08:05:03;;;;;;;42.47;18.20;;;7.40;99.30;;;;;;5052410;28;20525;-75
2021/11/04 08:07:33;;;;;;;35.67;18.07;;;7.40;99.30;;;;;;5053229;28;20033;-75
2021/11/04 08:10:00;;;;;;;49.63;19.07;;;7.40;99.30;;;;;;5053531;28;20033;-74
2021/11/04 08:12:25;;;;;;;37.43;17.90;;;7.30;99.40;;;;;;5053826;28;20544;-74
2021/11/04 08:14:51;;;;;;;32.80;17.97;;;7.50;99.50;;;;;;5052722;28;20057;-75
2021/11/04 08:17:17;;;;;;;32.80;18.20;;;7.70;99.50;;;;;;5052433;28;20362;-75
2021/11/04 08:19:43;;;;;;;30.60;18.53;;;7.80;99.60;;;;;;5052631;28;20041;-75
2021/11/04 08:22:08;;;;;;;26.47;17.63;;;7.80;99.60;;;;;;5052900;28;20040;-75
2021/11/04 08:24:34;;;;;;;29.83;17.93;;;7.90;99.50;;;;;;5052600;28;20613;-75
2021/11/04 08:27:00;;;;;;;29.83;18.07;;;8.00;99.40;;;;;;5053390;28;20048;-75
2021/11/04 08:29:25;;;;;;;27.97;17.50;;;8.00;99.40;;;;;;5052178;28;20500;-75
2021/11/04 08:31:51;;;;;;;28.23;17.90;;;8.10;99.30;;;;;;5053543;28;20028;-75
2021/11/04 08:34:18;;;;;;;29.67;18.70;;;8.10;99.20;;;;;;5036052;28;20061;-74
2021/11/04 08:36:44;;;;;;;27.43;17.73;;;8.10;99.10;;;;;;5053653;28;20129;-75
2021/11/04 08:39:11;;;;;;;30.13;17.30;;;8.20;99.10;;;;;;5052170;28;20044;-75
2021/11/04 08:41:37;;;;;;;32.50;20.17;;;8.10;99.00;;;;;;5053234;28;20032;-74
2021/11/04 08:44:03;;;;;;;27.77;17.47;;;8.10;98.90;;;;;;5053905;28;20037;-74
2021/11/04 08:46:29;;;;;;;28.50;18.70;;;8.20;98.90;;;;;;5053099;28;20036;-73
2021/11/04 08:48:55;;;;;;;31.13;19.30;;;8.20;99.10;;;;;;5051683;28;20119;-74
2021/11/04 08:51:21;;;;;;;30.47;18.50;;;8.20;98.80;;;;;;5048589;28;20032;-75
2021/11/04 08:53:47;;;;;;;33.70;20.43;;;8.30;98.80;;;;;;5084891;28;20025;-75
2021/11/04 08:56:13;;;;;;;32.53;20.67;;;8.30;98.60;;;;;;5052825;28;20037;-75
2021/11/04 08:58:38;;;;;;;32.17;20.13;;;8.30;98.70;;;;;;5051370;28;20056;-75
2021/11/04 09:01:04;;;;;;;34.37;20.87;;;8.30;98.60;;;;;;5051155;28;20071;-75
2021/11/04 09:03:30;;;;;;;31.73;20.03;;;8.30;98.60;;;;;;5051683;28;20029;-75
2021/11/04 09:05:56;;;;;;;29.20;19.87;;;8.30;98.60;;;;;;5052936;28;20040;-75
2021/11/04 09:08:24;;;;;;;31.77;20.30;;;8.40;98.50;;;;;;5051480;28;20029;-76
2021/11/04 09:10:49;;;;;;;33.20;21.20;;;8.30;98.40;;;;;;5052751;28;20033;-75
2021/11/04 09:13:16;;;;;;;33.47;20.97;;;8.30;98.40;;;;;;5037228;28;20431;-75
2021/11/04 09:15:41;;;;;;;33.10;20.63;;;8.30;98.50;;;;;;5056973;28;20418;-75
2021/11/04 09:18:07;;;;;;;33.17;19.93;;;8.30;98.40;;;;;;5056474;28;20119;-75
2021/11/04 09:20:34;;;;;;;35.47;22.23;;;8.50;98.50;;;;;;5056826;28;20104;-76
2021/11/04 09:22:59;;;;;;;32.10;20.37;;;8.40;98.40;;;;;;5057102;28;20029;-76
2021/11/04 09:25:25;;;;;;;32.87;21.23;;;8.50;98.40;;;;;;5055605;28;20085;-76
2021/11/04 09:27:56;;;;;;;31.47;20.83;;;8.60;98.50;;;;;;5056500;28;20561;-76
2021/11/04 09:30:22;;;;;;;33.57;21.80;;;8.70;98.70;;;;;;5056670;28;20036;-76
2021/11/04 09:32:48;;;;;;;33.10;21.10;;;8.90;98.80;;;;;;5056563;28;20079;-76
2021/11/04 09:35:15;;;;;;;31.90;21.00;;;9.00;98.70;;;;;;5056523;28;20025;-76
2021/11/04 09:37:42;;;;;;;33.07;20.90;;;9.00;98.60;;;;;;5038886;28;20116;-76
2021/11/04 09:40:09;;;;;;;32.40;21.33;;;9.00;98.40;;;;;;5056548;28;20469;-76
2021/11/04 09:42:35;;;;;;;33.70;21.40;;;9.10;98.30;;;;;;5056191;28;20033;-76
2021/11/04 09:45:02;;;;;;;33.07;21.03;;;9.10;98.20;;;;;;5056004;28;20029;-76
2021/11/04 09:47:30;;;;;;;34.60;21.37;;;9.00;98.10;;;;;;5054996;28;20094;-77
2021/11/04 09:50:03;;;;;;;36.23;21.43;;;9.10;98.00;;;;;;5056154;28;20040;-76
2021/11/04 09:52:33;;;;;;;34.97;21.07;;;9.00;97.90;;;;;;5054205;28;20048;-76
2021/11/04 09:54:59;;;;;;;36.63;21.50;;;9.10;97.90;;;;;;5055819;28;20028;-75
2021/11/04 09:57:27;;;;;;;38.63;23.37;;;9.00;97.70;;;;;;5055644;28;20029;-76
2021/11/04 09:59:56;;;;;;;37.63;23.10;;;9.00;97.80;;;;;;5055097;28;20025;-75
2021/11/04 10:02:24;;;;;;;34.27;22.43;;;9.00;97.60;;;;;;5055522;28;20041;-76
2021/11/04 10:04:51;;;;;;;28.47;19.47;;;9.00;97.60;;;;;;5054239;28;20036;-76
2021/11/04 10:07:17;;;;;;;31.90;21.47;;;9.00;97.60;;;;;;5054131;28;20025;-76
2021/11/04 10:09:50;;;;;;;30.47;20.43;;;8.90;97.50;;;;;;5053969;28;20119;-76
2021/11/04 10:12:15;;;;;;;29.63;19.93;;;9.00;97.90;;;;;;5055180;28;20029;-76
2021/11/04 10:14:41;;;;;;;30.13;19.23;;;9.00;97.50;;;;;;5037438;28;20358;-76
2021/11/04 10:17:37;;;;;;;28.73;19.17;;;9.00;97.60;;;;;;5053973;28;20374;-76
2021/11/04 10:20:20;;;;;;;27.13;18.97;;;9.10;97.70;;;;;;5054247;28;20112;-76
2021/11/04 10:23:03;;;;;;;27.97;18.23;;;9.10;97.70;;;;;;5069451;28;20029;-76
2021/11/04 10:25:29;;;;;;;26.03;17.93;;;9.20;97.60;;;;;;5053221;28;20040;-76
2021/11/04 10:27:55;;;;;;;26.70;17.77;;;9.30;97.70;;;;;;5054091;28;20409;-76
2021/11/04 10:30:54;;;;;;;27.73;18.60;;;9.30;97.60;;;;;;5054477;28;20040;-76
2021/11/04 10:33:27;;;;;;;30.03;18.03;;;9.30;97.50;;;;;;5054261;28;20045;-76
2021/11/04 10:35:59;;;;;;;24.73;17.37;;;9.40;97.30;;;;;;5038064;28;20037;-76
2021/11/04 10:38:44;;;;;;;24.30;17.43;;;9.40;97.40;;;;;;5051918;28;20033;-76
2021/11/04 10:41:18;;;;;;;25.93;17.73;;;9.50;97.40;;;;;;5051129;28;20040;-76
2021/11/04 10:43:43;;;;;;;;;;;9.60;97.30;;;;;;5052932;28;20040;-76
2021/11/04 10:46:13;;;;;;;23.67;16.97;;;9.60;97.30;;;;;;5055087;28;19909;-76
2021/11/04 10:48:56;;;;;;;22.87;15.77;;;9.60;97.20;;;;;;5055464;28;20439;-76
2021/11/04 10:51:21;;;;;;;23.83;16.83;;;9.70;97.10;;;;;;5053892;28;20021;-76
2021/11/04 10:54:15;;;;;;;23.03;16.20;;;9.60;96.90;;;;;;5055295;28;20504;-76
2021/11/04 10:56:43;;;;;;;21.07;15.40;;;9.60;96.90;;;;;;5055499;28;20024;-75
2021/11/04 10:59:10;;;;;;;22.13;15.00;;;9.60;96.90;;;;;;5053981;28;20021;-76
2021/11/04 11:01:47;;;;;;;21.57;15.67;;;9.60;96.90;;;;;;5053011;28;20048;-76
2021/11/04 11:04:21;;;;;;;22.70;15.97;;;9.60;97.10;;;;;;5053332;28;20075;-75
2021/11/04 11:06:47;;;;;;;23.13;15.23;;;9.60;96.70;;;;;;5053794;28;20017;-74
2021/11/04 11:09:17;;;;;;;21.67;15.87;;;9.60;96.80;;;;;;5054798;28;20025;-75
2021/11/04 11:11:46;;;;;;;25.37;17.20;;;9.60;96.90;;;;;;5053891;28;20017;-74
2021/11/04 11:14:13;;;;;;;21.23;15.87;;;9.70;97.00;;;;;;5055088;28;20028;-74
2021/11/04 11:16:46;;;;;;;26.13;18.17;;;9.70;96.90;;;;;;5054667;28;20021;-74
2021/11/04 11:19:16;;;;;;;24.33;18.07;;;9.80;96.80;;;;;;5053682;28;20087;-74
2021/11/04 11:21:42;;;;;;;26.67;17.50;;;9.80;96.60;;;;;;5053509;28;20025;-74
2021/11/04 11:24:13;;;;;;;20.60;15.43;;;9.80;96.50;;;;;;5054908;28;20035;-74
2021/11/04 11:26:44;;;;;;;27.00;16.53;;;9.90;96.60;;;;;;5053960;28;20025;-74
2021/11/04 11:29:10;;;;;;;21.37;16.43;;;9.90;96.50;;;;;;5036925;28;20045;-74
2021/11/04 11:31:47;;;;;;;24.63;17.00;;;10.00;96.50;;;;;;5053562;28;20032;-75
2021/11/04 11:34:17;;;;;;;24.47;16.73;;;10.00;96.40;;;;;;5054681;28;20393;-75
2021/11/04 11:37:19;;;;;;;21.53;15.53;;;10.00;96.40;;;;;;5054196;28;20021;-74
2021/11/04 11:39:44;;;;;;;22.87;15.60;;;10.00;96.50;;;;;;5054621;28;20580;-74
2021/11/04 11:42:12;;;;;;;23.70;16.02;;;10.10;96.40;;;;;;5054330;28;20103;-74
2021/11/04 11:44:40;;;;;;;19.40;14.57;;;10.10;96.40;;;;;;5052902;28;20063;-74
2021/11/04 11:47:20;;;;;;;21.37;15.13;;;10.00;96.30;;;;;;5054118;28;20353;-74
2021/11/04 11:49:48;;;;;;;20.73;14.80;;;10.10;96.30;;;;;;5053041;28;20116;-73
2021/11/04 11:52:48;;;;;;;22.37;14.67;;;10.20;96.40;;;;;;5050757;28;20433;-73
2021/11/04 11:55:34;;;;;;;20.27;13.40;;;10.20;96.40;;;;;;5053974;28;20052;-73
2021/11/04 11:58:24;;;;;;;24.30;15.73;;;10.30;96.30;;;;;;5052917;28;20021;-74
2021/11/04 12:00:56;;;;;;;26.83;15.40;;;10.30;96.30;;;;;;5054281;28;20043;-74
2021/11/04 12:03:40;;;;;;;21.27;14.63;;;10.30;96.20;;;;;;5054038;28;20047;-73
2021/11/04 12:06:12;;;;;;;19.70;14.10;;;10.20;96.20;;;;;;5053863;28;20029;-74
2021/11/04 12:08:40;;;;;;;20.83;13.75;;;10.30;96.20;;;;;;5052950;28;20025;-74
2021/11/04 12:11:08;;;;;;;20.17;13.83;;;10.40;96.20;;;;;;5052465;28;20507;-73
2021/11/04 12:13:40;;;;;;;19.67;14.40;;;10.40;96.10;;;;;;5051920;28;20021;-73
2021/11/04 12:16:16;;;;;;;21.03;14.53;;;10.40;96.00;;;;;;5053508;28;20023;-74
2021/11/04 12:18:55;;;;;;;18.70;13.90;;;10.50;95.90;;;;;;5050951;28;20476;-74
2021/11/04 12:21:22;;;;;;;20.43;13.30;;;10.50;95.90;;;;;;5052507;28;20029;-74
2021/11/04 12:23:48;;;;;;;19.50;13.67;;;10.60;95.80;;;;;;5052611;28;20408;-74
2021/11/04 12:26:15;;;;;;;20.57;14.30;;;10.70;95.90;;;;;;5052450;28;20041;-74
2021/11/04 12:28:49;;;;;;;20.40;13.95;;;10.80;95.80;;;;;;5051971;28;20051;-72
2021/11/04 12:31:21;;;;;;;20.47;14.10;;;10.80;95.80;;;;;;5050656;28;20025;-75
2021/11/04 12:33:57;;;;;;;19.17;13.57;;;10.90;95.60;;;;;;5052169;28;20092;-74
2021/11/04 12:36:30;;;;;;;18.27;13.50;;;11.00;95.50;;;;;;5052094;28;20029;-74
2021/11/04 12:38:56;;;;;;;21.88;15.27;;;11.00;95.30;;;;;;5053094;28;20559;-75
2021/11/04 12:41:22;;;;;;;18.27;13.90;;;11.00;95.20;;;;;;5053638;28;20029;-75